createdAt,value
2022-12-27T00:00:36.796Z,5.18
2022-12-27T00:03:42.440Z,13.00
2022-12-27T00:06:46.865Z,9.52
2022-12-27T00:09:51.623Z,10.05
2022-12-27T00:12:55.985Z,13.52
2022-12-27T00:16:11.607Z,10.73
2022-12-27T00:19:16.575Z,7.90
2022-12-27T00:22:21.304Z,9.23
2022-12-27T00:25:25.922Z,10.18
2022-12-27T00:28:32.889Z,12.05
2022-12-27T00:31:37.931Z,10.32
2022-12-27T00:34:42.455Z,12.95
2022-12-27T00:37:46.763Z,8.95
2022-12-27T00:40:51.420Z,9.43
2022-12-27T00:43:56.345Z,6.40
2022-12-27T00:47:00.696Z,9.50
2022-12-27T00:50:05.755Z,7.80
2022-12-27T00:53:12.175Z,9.48
2022-12-27T00:56:21.785Z,11.00
2022-12-27T00:59:26.389Z,9.85
2022-12-27T01:02:31.283Z,10.10
2022-12-27T01:05:38.792Z,9.10
2022-12-27T01:08:43.968Z,8.10
2022-12-27T01:11:48.649Z,11.27
2022-12-27T01:14:53.107Z,10.13
2022-12-27T01:17:57.634Z,9.25
2022-12-27T01:21:12.224Z,11.55
2022-12-27T01:24:16.970Z,11.07
2022-12-27T01:27:21.240Z,8.23
2022-12-27T01:30:25.839Z,9.93
2022-12-27T01:33:30.412Z,6.88
2022-12-27T01:36:35.231Z,9.13
2022-12-27T01:39:39.752Z,6.97
2022-12-27T01:42:53.510Z,6.65
2022-12-27T01:45:58.818Z,8.60
2022-12-27T01:49:05.191Z,8.98
2022-12-27T01:52:11.189Z,8.60
2022-12-27T01:55:32.958Z,7.38
2022-12-27T01:58:47.836Z,11.20
2022-12-27T02:01:53.266Z,12.25
2022-12-27T02:04:58.256Z,6.53
2022-12-27T02:08:28.171Z,9.57
2022-12-27T02:11:51.178Z,6.38
2022-12-27T02:14:55.897Z,8.07
2022-12-27T02:18:01.023Z,12.68
2022-12-27T02:21:20.388Z,8.93
2022-12-27T02:24:41.009Z,10.55
2022-12-27T02:28:07.852Z,9.25
2022-12-27T02:31:51.506Z,7.60
2022-12-27T02:35:19.200Z,10.50
2022-12-27T02:38:44.754Z,10.48
2022-12-27T02:42:08.273Z,9.43
2022-12-27T02:45:39.292Z,9.10
2022-12-27T02:49:15.306Z,6.60
2022-12-27T02:53:30.851Z,9.98
2022-12-27T02:57:08.752Z,6.30
2022-12-27T03:00:34.112Z,6.68
2022-12-27T03:04:03.127Z,8.40
2022-12-27T03:07:22.595Z,9.73
2022-12-27T03:11:14.514Z,7.15
2022-12-27T03:15:05.271Z,13.00
2022-12-27T03:18:18.241Z,7.15
2022-12-27T03:21:59.565Z,7.07
2022-12-27T03:25:23.876Z,10.35
2022-12-27T03:28:48.994Z,7.25
2022-12-27T03:32:19.734Z,7.18
2022-12-27T03:35:28.274Z,9.45
2022-12-27T03:38:37.332Z,11.00
2022-12-27T03:42:14.457Z,8.70
2022-12-27T03:45:21.790Z,8.57
2022-12-27T03:48:32.011Z,9.20
2022-12-27T03:51:51.102Z,8.48
2022-12-27T03:54:57.092Z,7.38
2022-12-27T03:58:01.898Z,8.13
2022-12-27T04:01:06.747Z,7.38
2022-12-27T04:04:11.315Z,8.98
2022-12-27T04:07:16.486Z,8.45
2022-12-27T04:10:39.539Z,13.75
2022-12-27T04:14:02.627Z,5.93
2022-12-27T04:17:25.205Z,7.95
2022-12-27T04:20:48.215Z,7.50
2022-12-27T04:24:10.942Z,8.52
2022-12-27T04:27:33.663Z,8.35
2022-12-27T04:30:56.389Z,9.10
2022-12-27T04:34:19.248Z,9.98
2022-12-27T04:37:23.511Z,8.65
2022-12-27T04:40:46.388Z,10.20
2022-12-27T04:44:09.330Z,8.05
2022-12-27T04:47:36.321Z,8.85
2022-12-27T04:50:58.934Z,13.88
2022-12-27T04:54:21.874Z,10.00
2022-12-27T04:57:27.684Z,10.13
2022-12-27T05:00:52.064Z,8.02
2022-12-27T05:03:56.409Z,9.23
2022-12-27T05:07:24.136Z,8.05
2022-12-27T05:10:47.066Z,11.95
2022-12-27T05:14:03.228Z,10.48
2022-12-27T05:17:12.795Z,8.90
2022-12-27T05:20:17.591Z,8.07
2022-12-27T05:23:40.728Z,9.05
2022-12-27T05:26:45.483Z,10.10
2022-12-27T05:29:50.380Z,7.55
2022-12-27T05:32:56.019Z,12.60
2022-12-27T05:36:00.889Z,12.05
2022-12-27T05:39:05.402Z,6.97
2022-12-27T05:42:10.080Z,12.23
2022-12-27T05:45:14.467Z,13.60
2022-12-27T05:48:19.104Z,13.60
2022-12-27T05:51:23.683Z,7.30
2022-12-27T05:54:27.972Z,7.63
2022-12-27T05:57:34.184Z,18.33
2022-12-27T06:00:38.483Z,12.52
2022-12-27T06:03:43.033Z,11.80
2022-12-27T06:06:47.675Z,8.02
2022-12-27T06:09:52.052Z,7.20
2022-12-27T06:12:59.214Z,9.85
2022-12-27T06:16:06.557Z,7.50
2022-12-27T06:19:11.107Z,9.75
2022-12-27T06:22:15.796Z,7.50
2022-12-27T06:25:20.651Z,7.00
2022-12-27T06:28:25.275Z,7.22
2022-12-27T06:31:29.821Z,9.15
2022-12-27T06:34:34.410Z,12.35
2022-12-27T06:37:39.331Z,9.48
2022-12-27T06:40:44.242Z,9.00
2022-12-27T06:43:54.602Z,13.52
2022-12-27T06:46:59.386Z,10.52
2022-12-27T06:50:04.623Z,11.25
2022-12-27T06:53:09.150Z,5.85
2022-12-27T06:56:17.778Z,7.50
2022-12-27T06:59:22.133Z,10.23
2022-12-27T07:02:26.898Z,13.15
2022-12-27T07:05:32.211Z,10.82
2022-12-27T07:08:37.637Z,7.25
2022-12-27T07:11:42.298Z,8.63
2022-12-27T07:14:46.861Z,8.88
2022-12-27T07:17:51.133Z,6.45
2022-12-27T07:20:55.744Z,9.20
2022-12-27T07:24:00.217Z,19.05
2022-12-27T07:27:05.262Z,8.32
2022-12-27T07:30:10.587Z,9.88
2022-12-27T07:33:15.223Z,10.18
2022-12-27T07:36:26.259Z,10.73
2022-12-27T07:39:31.201Z,9.23
2022-12-27T07:42:35.904Z,6.53
2022-12-27T07:45:41.100Z,8.38
2022-12-27T07:48:47.367Z,9.85
2022-12-27T07:51:52.067Z,6.32
2022-12-27T07:54:56.766Z,9.93
2022-12-27T07:58:01.439Z,5.82
2022-12-27T08:01:07.096Z,8.25
2022-12-27T08:04:11.555Z,9.38
2022-12-27T08:07:19.179Z,10.82
2022-12-27T08:10:24.056Z,9.60
2022-12-27T08:13:28.825Z,11.93
2022-12-27T08:16:33.279Z,12.52
2022-12-27T08:19:37.638Z,7.82
2022-12-27T08:22:41.943Z,7.28
2022-12-27T08:25:48.825Z,8.65
2022-12-27T08:28:53.599Z,7.60
2022-12-27T08:31:58.452Z,8.98
2022-12-27T08:35:25.001Z,7.80
2022-12-27T08:38:27.971Z,10.40
2022-12-27T08:41:33.381Z,11.93
2022-12-27T08:44:38.124Z,12.63
2022-12-27T08:47:42.376Z,9.70
2022-12-27T08:50:46.742Z,8.75
2022-12-27T08:53:51.419Z,9.07
2022-12-27T08:56:56.137Z,10.57
2022-12-27T09:00:00.635Z,10.63
2022-12-27T09:03:05.327Z,8.90
2022-12-27T09:06:17.895Z,9.68
2022-12-27T09:09:22.517Z,7.00
2022-12-27T09:12:26.903Z,8.70
2022-12-27T09:15:31.422Z,9.02
2022-12-27T09:18:40.487Z,9.55
2022-12-27T09:21:45.078Z,13.23
2022-12-27T09:24:49.959Z,7.68
2022-12-27T09:27:55.148Z,7.55
2022-12-27T09:30:59.853Z,7.72
2022-12-27T09:34:04.243Z,9.77
2022-12-27T09:37:08.977Z,9.20
2022-12-27T09:40:19.782Z,9.32
2022-12-27T09:43:55.298Z,9.45
2022-12-27T09:47:25.280Z,9.90
2022-12-27T09:51:06.847Z,7.95
2022-12-27T09:54:18.743Z,8.90
2022-12-27T09:57:41.762Z,9.98
2022-12-27T10:00:46.595Z,9.70
2022-12-27T10:03:54.904Z,9.75
2022-12-27T10:07:29.201Z,9.70
2022-12-27T10:11:09.972Z,16.60
2022-12-27T10:14:21.580Z,12.50
2022-12-27T10:17:52.894Z,10.32
2022-12-27T10:21:25.230Z,13.50
2022-12-27T10:24:49.631Z,10.70
2022-12-27T10:28:30.116Z,10.57
2022-12-27T10:31:37.754Z,11.52
2022-12-27T10:34:42.098Z,11.40
2022-12-27T10:37:48.192Z,17.48
2022-12-27T10:41:03.292Z,11.50
2022-12-27T10:44:11.811Z,12.40
2022-12-27T10:47:16.719Z,11.23
2022-12-27T10:50:24.672Z,15.88
2022-12-27T10:54:00.189Z,11.75
2022-12-27T10:57:26.613Z,14.25
2022-12-27T11:00:31.259Z,13.15
2022-12-27T11:03:36.052Z,15.90
2022-12-27T11:06:42.736Z,15.52
2022-12-27T11:09:51.008Z,15.90
2022-12-27T11:13:05.401Z,19.20
2022-12-27T11:16:29.697Z,16.45
2022-12-27T11:19:34.839Z,13.63
2022-12-27T11:23:00.374Z,12.75
2022-12-27T11:26:06.911Z,16.33
2022-12-27T11:29:18.337Z,11.32
2022-12-27T11:32:24.001Z,13.93
2022-12-27T11:35:28.543Z,10.20
2022-12-27T11:38:36.430Z,12.73
2022-12-27T11:41:49.922Z,9.93
2022-12-27T11:45:13.520Z,12.38
2022-12-27T11:48:24.567Z,9.98
2022-12-27T11:52:06.486Z,10.20
2022-12-27T11:55:29.226Z,10.90
2022-12-27T11:58:42.744Z,9.05
2022-12-27T12:02:16.914Z,10.18
2022-12-27T12:05:51.034Z,12.75
2022-12-27T12:09:15.876Z,9.93
2022-12-27T12:13:09.803Z,7.88
2022-12-27T12:16:45.219Z,7.60
2022-12-27T12:20:17.748Z,9.00
2022-12-27T12:24:26.068Z,8.32
2022-12-27T12:27:45.772Z,8.43
2022-12-27T12:31:33.984Z,9.43
2022-12-27T12:35:06.620Z,8.13
2022-12-27T12:38:22.000Z,7.72
2022-12-27T12:41:51.111Z,8.43
2022-12-27T12:45:59.320Z,6.68
2022-12-27T12:49:18.916Z,5.35
2022-12-27T12:52:47.932Z,6.22
2022-12-27T12:56:52.773Z,6.93
2022-12-27T13:00:37.490Z,7.85
2022-12-27T13:04:17.718Z,5.32
2022-12-27T13:07:40.475Z,8.02
2022-12-27T13:11:29.482Z,8.48
2022-12-27T13:15:04.497Z,5.88
2022-12-27T13:19:03.571Z,8.35
2022-12-27T13:22:52.293Z,5.65
2022-12-27T13:26:34.898Z,7.78
2022-12-27T13:30:14.256Z,8.40
2022-12-27T13:33:51.855Z,5.88
2022-12-27T13:37:30.107Z,5.28
2022-12-27T13:41:07.842Z,7.45
2022-12-27T13:44:43.116Z,7.18
2022-12-27T13:48:02.908Z,6.40
2022-12-27T13:51:42.646Z,6.78
2022-12-27T13:55:34.823Z,10.68
2022-12-27T13:58:59.569Z,8.10
2022-12-27T14:02:38.104Z,9.13
2022-12-27T14:06:29.808Z,8.23
2022-12-27T14:10:02.196Z,6.30
2022-12-27T14:13:11.555Z,7.20
2022-12-27T14:16:40.929Z,10.27
2022-12-27T14:20:15.922Z,6.97
2022-12-27T14:23:40.640Z,7.07
2022-12-27T14:30:30.345Z,9.85
2022-12-27T14:34:09.979Z,5.75
2022-12-27T14:37:38.557Z,6.47
2022-12-27T14:41:37.099Z,7.53
2022-12-27T14:45:32.304Z,8.63
2022-12-27T14:48:42.557Z,5.45
2022-12-27T14:52:15.070Z,8.32
2022-12-27T14:56:12.645Z,10.52
2022-12-27T14:59:45.698Z,6.93
2022-12-27T15:03:15.145Z,7.18
2022-12-27T15:06:44.461Z,10.55
2022-12-27T15:10:03.803Z,7.75
2022-12-27T15:14:01.374Z,9.15
2022-12-27T15:17:25.828Z,8.75
2022-12-27T15:21:05.726Z,9.35
2022-12-27T15:24:51.898Z,8.98
2022-12-27T15:28:16.963Z,10.27
2022-12-27T15:31:53.275Z,5.90
2022-12-27T15:35:20.574Z,8.32
2022-12-27T15:38:42.330Z,10.57
2022-12-27T15:42:37.282Z,9.25
2022-12-27T15:46:35.822Z,7.22
2022-12-27T15:50:08.430Z,9.40
2022-12-27T15:53:47.987Z,7.47
2022-12-27T15:57:27.585Z,8.30
2022-12-27T16:00:34.547Z,5.30
2022-12-27T16:03:40.719Z,7.32
2022-12-27T16:06:50.376Z,10.75
2022-12-27T16:09:55.465Z,9.93
2022-12-27T16:13:11.826Z,9.55
2022-12-27T16:16:28.627Z,9.77
2022-12-27T16:20:02.370Z,10.77
2022-12-27T16:23:10.624Z,9.07
2022-12-27T16:26:29.938Z,10.45
2022-12-27T16:29:36.987Z,7.05
2022-12-27T16:32:49.046Z,7.93
2022-12-27T16:36:26.121Z,10.13
2022-12-27T16:39:57.969Z,7.68
2022-12-27T16:43:05.632Z,11.18
2022-12-27T16:46:32.565Z,11.25
2022-12-27T16:49:57.967Z,8.73
2022-12-27T16:53:45.976Z,9.95
2022-12-27T16:56:50.993Z,8.02
2022-12-27T17:00:07.747Z,8.52
2022-12-27T17:03:20.960Z,6.45
2022-12-27T17:06:33.712Z,5.68
2022-12-27T17:09:41.562Z,7.55
2022-12-27T17:12:52.229Z,7.82
2022-12-27T17:16:08.015Z,7.60
2022-12-27T17:19:30.655Z,8.07
2022-12-27T17:22:39.526Z,9.23
2022-12-27T17:26:04.653Z,9.48
2022-12-27T17:30:06.228Z,7.38
2022-12-27T17:33:40.142Z,8.65
2022-12-27T17:37:02.017Z,7.47
2022-12-27T17:40:20.146Z,13.70
2022-12-27T17:44:05.039Z,9.02
2022-12-27T17:47:30.796Z,7.30
2022-12-27T17:50:37.149Z,9.55
2022-12-27T17:54:11.439Z,12.73
2022-12-27T17:57:37.945Z,11.77
2022-12-27T18:00:55.625Z,8.10
2022-12-27T18:04:01.698Z,7.93
2022-12-27T18:07:11.644Z,8.32
2022-12-27T18:10:24.854Z,7.95
2022-12-27T18:13:42.924Z,14.15
2022-12-27T18:16:47.995Z,7.30
2022-12-27T18:19:56.117Z,6.90
2022-12-27T18:23:01.045Z,9.10
2022-12-27T18:26:14.096Z,8.25
2022-12-27T18:29:18.980Z,9.07
2022-12-27T18:32:25.791Z,8.10
2022-12-27T18:35:31.390Z,9.05
2022-12-27T18:38:47.894Z,8.95
2022-12-27T18:41:54.602Z,8.85
2022-12-27T18:45:22.927Z,6.90
2022-12-27T18:48:33.834Z,7.00
2022-12-27T18:51:39.280Z,8.07
2022-12-27T18:54:48.382Z,6.25
2022-12-27T18:58:19.919Z,9.52
2022-12-27T19:01:30.817Z,8.27
2022-12-27T19:04:35.236Z,10.23
2022-12-27T19:07:41.960Z,8.90
2022-12-27T19:10:50.240Z,7.07
2022-12-27T19:13:59.656Z,10.82
2022-12-27T19:17:10.432Z,11.07
2022-12-27T19:20:28.099Z,9.82
2022-12-27T19:23:43.209Z,8.52
2022-12-27T19:26:48.379Z,9.55
2022-12-27T19:29:53.461Z,9.60
2022-12-27T19:32:58.110Z,9.38
2022-12-27T19:36:07.016Z,8.38
2022-12-27T19:39:34.371Z,7.53
2022-12-27T19:42:40.016Z,10.10
2022-12-27T19:45:44.326Z,8.18
2022-12-27T19:49:15.893Z,5.53
2022-12-27T19:55:25.700Z,5.72
2022-12-27T19:58:31.189Z,8.88
2022-12-27T20:01:35.762Z,9.88
2022-12-27T20:04:40.516Z,7.43
2022-12-27T20:07:44.845Z,7.97
2022-12-27T20:10:49.721Z,8.43
2022-12-27T20:13:54.528Z,7.75
2022-12-27T20:16:59.133Z,8.40
2022-12-27T20:20:04.412Z,8.48
2022-12-27T20:23:09.395Z,7.05
2022-12-27T20:26:20.401Z,8.25
2022-12-27T20:29:25.934Z,7.68
2022-12-27T20:32:30.525Z,9.25
2022-12-27T20:35:35.394Z,8.63
2022-12-27T20:38:40.517Z,9.05
2022-12-27T20:41:44.989Z,10.40
2022-12-27T20:44:49.469Z,8.65
2022-12-27T20:47:53.887Z,9.07
2022-12-27T20:50:58.823Z,7.93
2022-12-27T20:54:03.931Z,9.30
2022-12-27T20:57:08.614Z,13.82
2022-12-27T21:00:14.514Z,10.20
2022-12-27T21:03:19.038Z,6.15
2022-12-27T21:06:27.650Z,9.82
2022-12-27T21:09:31.989Z,6.60
2022-12-27T21:12:38.220Z,6.88
2022-12-27T21:15:46.310Z,7.10
2022-12-27T21:18:51.079Z,9.27
2022-12-27T21:21:55.769Z,6.97
2022-12-27T21:25:00.566Z,11.45
2022-12-27T21:28:05.225Z,8.07
2022-12-27T21:31:10.882Z,7.07
2022-12-27T21:34:16.316Z,9.90
2022-12-27T21:37:21.329Z,11.77
2022-12-27T21:40:26.287Z,27.23
2022-12-27T21:43:31.987Z,34.47
2022-12-27T21:46:42.424Z,31.73
2022-12-27T21:49:47.624Z,17.15
2022-12-27T21:52:52.465Z,93.57
2022-12-27T21:56:00.605Z,61.70
2022-12-27T21:59:10.811Z,28.27
2022-12-27T22:02:15.725Z,55.42
2022-12-27T22:05:20.620Z,32.13
2022-12-27T22:08:25.526Z,17.85
2022-12-27T22:11:32.721Z,10.85
2022-12-27T22:14:37.345Z,11.25
2022-12-27T22:17:42.813Z,10.13
2022-12-27T22:20:47.595Z,7.35
2022-12-27T22:23:54.473Z,6.05
2022-12-27T22:26:58.928Z,6.68
2022-12-27T22:30:05.122Z,7.55
2022-12-27T22:33:09.326Z,7.60
2022-12-27T22:36:25.684Z,5.43
2022-12-27T22:39:30.952Z,7.20
2022-12-27T22:42:35.807Z,7.10
2022-12-27T22:45:45.479Z,5.60
2022-12-27T22:48:55.647Z,7.53
2022-12-27T22:52:00.629Z,7.82
2022-12-27T22:55:07.244Z,8.70
2022-12-27T22:58:11.887Z,6.05
2022-12-27T23:01:31.643Z,12.98
2022-12-27T23:04:36.339Z,7.88
2022-12-27T23:08:04.194Z,7.55
2022-12-27T23:14:18.265Z,7.03
2022-12-27T23:17:22.926Z,11.38
2022-12-27T23:20:27.487Z,7.13
2022-12-27T23:23:34.937Z,9.38
2022-12-27T23:26:41.144Z,6.75
2022-12-27T23:29:45.864Z,8.90
2022-12-27T23:32:50.328Z,5.35
2022-12-27T23:35:55.623Z,5.90
2022-12-27T23:39:00.360Z,7.90
2022-12-27T23:42:04.804Z,8.30
2022-12-27T23:45:10.985Z,9.75
2022-12-27T23:48:16.152Z,6.18
2022-12-27T23:51:23.087Z,6.32
2022-12-27T23:54:27.741Z,7.55
2022-12-27T23:57:32.555Z,6.85
